Time;durP1;ratioP1;P1;durP2;ratioP2;P2;SDS_P1;SDS_P2;PMS_P1;PMS_P2;Temp;Humidity;BMP_temperature;BMP_pressure;BME280_temperature;BME280_humidity;BME280_pressure;Samples;Min_cycle;Max_cycle;Signal;HPM_P1;HPM_P2
2021/03/29 00:01:51;;;;;;;10.40;1.90;;;;;;;-141.50;100.00;63355.56;5014507;28;20156;-78
2021/03/29 00:04:17;;;;;;;10.25;1.75;;;;;;;-141.50;100.00;63355.56;5032131;28;20137;-78
2021/03/29 00:06:43;;;;;;;12.48;2.10;;;;;;;-141.50;100.00;63355.56;5014602;28;20551;-78
2021/03/29 00:09:11;;;;;;;9.88;1.70;;;;;;;-141.50;100.00;63355.56;5029667;28;20061;-77
2021/03/29 00:11:39;;;;;;;9.15;1.98;;;;;;;-141.50;100.00;63355.56;5029624;28;20628;-77
2021/03/29 00:14:07;;;;;;;10.35;2.00;;;;;;;-141.50;100.00;63355.56;5012972;28;20046;-77
2021/03/29 00:16:34;;;;;;;7.72;1.75;;;;;;;-141.50;100.00;63355.56;5030523;28;20045;-76
2021/03/29 00:19:01;;;;;;;13.38;2.08;;;;;;;-141.50;100.00;63355.56;5033282;28;20088;-78
2021/03/29 00:21:27;;;;;;;8.48;2.40;;;;;;;-141.50;100.00;63355.56;5039528;28;20049;-77
2021/03/29 00:23:54;;;;;;;12.70;2.58;;;;;;;-141.50;100.00;63355.56;5045005;28;20049;-77
2021/03/29 00:26:20;;;;;;;9.88;2.03;;;;;;;-141.50;100.00;63355.56;5038482;28;20056;-78
2021/03/29 00:28:46;;;;;;;12.77;1.92;;;;;;;-141.50;100.00;63355.56;5034892;28;20481;-78
2021/03/29 00:31:12;;;;;;;8.07;1.90;;;;;;;-141.50;100.00;63355.56;5035080;28;20057;-78
2021/03/29 00:33:41;;;;;;;10.63;2.10;;;;;;;-141.50;100.00;63355.56;5022781;28;20562;-79
2021/03/29 00:36:10;;;;;;;7.38;1.92;;;;;;;-141.50;100.00;63355.56;5041034;28;20037;-78
2021/03/29 00:38:37;;;;;;;8.48;2.08;;;;;;;-141.50;100.00;63355.56;5036790;28;20046;-77
2021/03/29 00:41:10;;;;;;;7.32;1.80;;;;;;;-141.50;100.00;63355.56;5044516;28;20046;-77
2021/03/29 00:43:41;;;;;;;11.75;1.80;;;;;;;-141.50;100.00;63355.56;5014138;28;20412;-79
2021/03/29 00:46:09;;;;;;;12.70;2.33;;;;;;;-141.50;100.00;63355.56;5030130;28;20049;-78
2021/03/29 00:48:37;;;;;;;11.73;2.10;;;;;;;-141.50;100.00;63355.56;5030049;28;20053;-78
2021/03/29 00:51:12;;;;;;;8.25;1.90;;;;;;;-141.50;100.00;63355.56;5015094;28;20100;-77
2021/03/29 00:53:42;;;;;;;8.48;2.00;;;;;;;-141.50;100.00;63355.56;5033784;28;20053;-78
2021/03/29 00:56:09;;;;;;;7.88;1.55;;;;;;;-141.50;100.00;63355.56;5033600;28;20045;-77
2021/03/29 00:58:36;;;;;;;7.78;1.77;;;;;;;-141.50;100.00;63355.56;5017436;28;20578;-78
2021/03/29 01:01:17;;;;;;;8.73;1.88;;;;;;;-141.50;100.00;63355.56;5033993;28;20056;-78
2021/03/29 01:03:47;;;;;;;11.98;2.08;;;;;;;-141.50;100.00;63355.56;5015163;28;20425;-78
2021/03/29 01:06:17;;;;;;;8.65;1.80;;;;;;;-141.50;100.00;63355.56;5034879;28;20048;-77
2021/03/29 01:08:47;;;;;;;8.60;1.80;;;;;;;-141.50;100.00;63355.56;5011207;28;20148;-79
2021/03/29 01:11:22;;;;;;;6.55;1.80;;;;;;;-141.50;100.00;63355.56;5035672;28;20050;-78
2021/03/29 01:13:55;;;;;;;9.48;1.98;;;;;;;-141.50;100.00;63355.56;5037286;28;20117;-78
2021/03/29 01:16:26;;;;;;;9.75;1.80;;;;;;;-141.50;100.00;63355.56;5036656;28;20045;-78
2021/03/29 01:18:55;;;;;;;10.32;1.83;;;;;;;-141.50;100.00;63355.56;5017799;28;20053;-77
2021/03/29 01:21:43;;;;;;;8.48;1.75;;;;;;;-141.50;100.00;63355.56;5035125;28;20037;-78
2021/03/29 01:24:43;;;;;;;11.23;2.00;;;;;;;-141.50;100.00;63355.56;5035544;28;20045;-78
2021/03/29 01:27:14;;;;;;;9.60;1.95;;;;;;;-141.50;100.00;63355.56;5035649;28;20493;-78
2021/03/29 01:29:41;;;;;;;7.35;1.83;;;;;;;-141.50;100.00;63355.56;5041548;28;20049;-78
2021/03/29 01:32:08;;;;;;;8.80;1.92;;;;;;;-141.50;100.00;63355.56;5045675;28;20037;-78
2021/03/29 01:34:38;;;;;;;11.55;1.67;;;;;;;-141.50;100.00;63355.56;5020520;28;20045;-78
2021/03/29 01:37:05;;;;;;;10.60;2.00;;;;;;;-141.50;100.00;63355.56;5019871;28;20038;-78
2021/03/29 01:39:33;;;;;;;8.23;1.52;;;;;;;-141.50;100.00;63355.56;5010542;28;20051;-79
2021/03/29 01:42:00;;;;;;;9.45;1.55;;;;;;;-141.50;100.00;63355.56;5019205;28;20583;-78
2021/03/29 01:44:27;;;;;;;6.70;1.80;;;;;;;-141.50;100.00;63355.56;5019128;28;20054;-78
2021/03/29 01:46:55;;;;;;;16.60;2.47;;;;;;;-141.50;100.00;63355.56;5018184;28;20045;-79
2021/03/29 01:49:22;;;;;;;6.30;1.63;;;;;;;-141.50;100.00;63355.56;5036541;28;20042;-78
2021/03/29 01:51:49;;;;;;;10.73;1.98;;;;;;;-141.50;100.00;63355.56;5034508;28;20056;-79
2021/03/29 01:54:17;;;;;;;12.10;2.00;;;;;;;-141.50;100.00;63355.56;5034560;28;20042;-79
2021/03/29 01:56:43;;;;;;;12.52;2.22;;;;;;;-141.50;100.00;63355.56;5035388;28;20049;-78
2021/03/29 01:59:12;;;;;;;9.75;1.77;;;;;;;-141.50;100.00;63355.56;5036052;28;20045;-78
2021/03/29 02:01:38;;;;;;;11.45;2.00;;;;;;;-141.50;100.00;63355.56;5035026;28;20061;-78
2021/03/29 02:04:06;;;;;;;9.20;1.98;;;;;;;-141.50;100.00;63355.56;5017358;28;20045;-79
2021/03/29 02:06:36;;;;;;;10.43;2.13;;;;;;;-141.50;100.00;63355.56;5018373;28;20587;-78
2021/03/29 02:09:08;;;;;;;9.85;2.03;;;;;;;-141.50;100.00;63355.56;5035358;28;20056;-79
2021/03/29 02:11:35;;;;;;;9.98;2.10;;;;;;;-141.50;100.00;63355.56;5027644;28;20046;-78
2021/03/29 02:14:02;;;;;;;9.45;1.80;;;;;;;-141.50;100.00;63355.56;5029205;28;20049;-78
2021/03/29 02:16:29;;;;;;;7.57;1.92;;;;;;;-141.50;100.00;63355.56;5036686;22;20057;-75
2021/03/29 02:18:57;;;;;;;13.38;2.05;;;;;;;-141.50;100.00;63355.56;4989489;28;20046;-75
2021/03/29 02:21:30;;;;;;;8.48;1.70;;;;;;;-141.50;100.00;63355.56;4987923;28;20134;-74
2021/03/29 02:23:57;;;;;;;12.35;1.63;;;;;;;-141.50;100.00;63355.56;4993799;28;20042;-75
2021/03/29 02:26:27;;;;;;;13.18;2.28;;;;;;;-141.50;100.00;63355.56;4989702;28;20043;-76
2021/03/29 02:28:55;;;;;;;10.40;2.30;;;;;;;-141.50;100.00;63355.56;4989189;28;20050;-76
2021/03/29 02:31:24;;;;;;;9.82;1.83;;;;;;;-141.50;100.00;63355.56;4990544;28;20038;-76
2021/03/29 02:33:51;;;;;;;8.65;1.77;;;;;;;-141.50;100.00;63355.56;4990603;28;20671;-76
2021/03/29 02:36:20;;;;;;;8.70;1.73;;;;;;;-141.50;100.00;63355.56;4990261;28;20061;-74
2021/03/29 02:38:46;;;;;;;6.70;1.75;;;;;;;-141.50;100.00;63355.56;4989884;28;20043;-76
2021/03/29 02:41:13;;;;;;;16.08;1.77;;;;;;;-141.50;100.00;63355.56;4988977;28;20656;-76
2021/03/29 02:43:40;;;;;;;8.23;1.85;;;;;;;-141.50;100.00;63355.56;5005513;28;20503;-74
2021/03/29 02:46:09;;;;;;;10.43;1.63;;;;;;;-141.50;100.00;63355.56;4994985;28;20085;-76
2021/03/29 02:48:41;;;;;;;9.43;1.60;;;;;;;-141.50;100.00;63355.56;4988449;28;20043;-74
2021/03/29 02:51:13;;;;;;;16.73;2.30;;;;;;;-141.50;100.00;63355.56;4990613;28;20153;-75
2021/03/29 02:53:46;;;;;;;8.18;1.92;;;;;;;-141.50;100.00;63355.56;4990270;28;20069;-76
2021/03/29 02:56:19;;;;;;;8.50;1.92;;;;;;;-141.50;100.00;63355.56;4990341;28;20132;-76
2021/03/29 02:58:51;;;;;;;11.57;2.05;;;;;;;-141.50;100.00;63355.56;4989935;28;20410;-76
2021/03/29 03:01:21;;;;;;;10.43;1.95;;;;;;;-141.50;100.00;63355.56;4973093;28;20145;-75
2021/03/29 03:03:51;;;;;;;8.93;1.98;;;;;;;-141.50;100.00;63355.56;4988797;28;20050;-75
2021/03/29 03:06:23;;;;;;;10.07;2.10;;;;;;;-141.50;100.00;63355.56;4989834;28;20062;-75
2021/03/29 03:08:50;;;;;;;8.27;1.63;;;;;;;-141.50;100.00;63355.56;4989441;28;20046;-74
2021/03/29 03:11:18;;;;;;;13.05;1.83;;;;;;;-141.50;100.00;63355.56;4988267;28;20046;-75
2021/03/29 03:13:45;;;;;;;9.55;1.58;;;;;;;-141.50;100.00;63355.56;4987868;28;20057;-77
2021/03/29 03:16:11;;;;;;;14.65;2.05;;;;;;;-141.50;100.00;63355.56;4988233;28;20050;-75
2021/03/29 03:18:40;;;;;;;10.52;1.83;;;;;;;-141.50;100.00;63355.56;4989257;28;20038;-76
2021/03/29 03:21:08;;;;;;;11.13;2.22;;;;;;;-141.50;100.00;63355.56;4989100;28;20049;-76
2021/03/29 03:23:34;;;;;;;5.60;1.73;;;;;;;-141.50;100.00;63355.56;4988070;28;20068;-75
2021/03/29 03:26:00;;;;;;;10.80;1.95;;;;;;;-141.50;100.00;63355.56;4988267;28;20405;-77
2021/03/29 03:28:28;;;;;;;8.65;2.05;;;;;;;-141.50;100.00;63355.56;4988252;28;20534;-77
2021/03/29 03:30:56;;;;;;;9.07;2.20;;;;;;;-141.50;100.00;63355.56;4996986;28;20038;-76
2021/03/29 03:33:28;;;;;;;12.23;2.25;;;;;;;-141.50;100.00;63355.56;4987640;28;20041;-76
2021/03/29 03:35:55;;;;;;;9.88;2.00;;;;;;;-141.50;100.00;63355.56;4989066;28;20098;-76
2021/03/29 03:38:26;;;;;;;15.13;2.40;;;;;;;-141.50;100.00;63355.56;4990312;28;20474;-75
2021/03/29 03:40:58;;;;;;;15.90;2.45;;;;;;;-141.50;100.00;63355.56;4987836;28;20153;-76
2021/03/29 03:43:28;;;;;;;8.18;1.90;;;;;;;-141.50;100.00;63355.56;4964051;28;20521;-75
2021/03/29 03:46:00;;;;;;;9.27;2.13;;;;;;;-141.50;100.00;63355.56;4988894;28;20052;-76
2021/03/29 03:48:29;;;;;;;9.25;2.08;;;;;;;-141.50;100.00;63355.56;4989173;28;20413;-76
2021/03/29 03:50:56;;;;;;;14.25;2.40;;;;;;;-141.50;100.00;63355.56;4994412;28;20113;-75
2021/03/29 03:53:23;;;;;;;12.80;1.75;;;;;;;-141.50;100.00;63355.56;4977232;28;20069;-75
2021/03/29 03:55:53;;;;;;;9.45;2.03;;;;;;;-141.50;100.00;63355.56;4987428;28;20030;-74
2021/03/29 03:58:19;;;;;;;7.80;1.80;;;;;;;-141.50;100.00;63355.56;4988804;28;20504;-75
2021/03/29 04:00:46;;;;;;;10.05;2.00;;;;;;;-141.50;100.00;63355.56;4994627;28;20153;-75
2021/03/29 04:03:13;;;;;;;9.80;1.95;;;;;;;-141.50;100.00;63355.56;4990399;28;20042;-76
2021/03/29 04:05:39;;;;;;;14.55;2.58;;;;;;;-141.50;100.00;63355.56;4987859;28;20688;-75
2021/03/29 04:08:25;;;;;;;;;;;;;;;-141.50;100.00;63355.56;4989197;28;20062;-76
2021/03/29 04:10:55;;;;;;;8.73;1.75;;;;;;;-141.50;100.00;63355.56;4989489;28;19999;-75
2021/03/29 04:15:51;;;;;;;11.20;2.25;;;;;;;-141.50;100.00;63355.56;4988991;28;20045;-75
2021/03/29 04:18:22;;;;;;;10.98;2.00;;;;;;;-141.50;100.00;63355.56;4988178;28;20125;-73
2021/03/29 04:20:49;;;;;;;10.77;2.22;;;;;;;-141.50;100.00;63355.56;4987721;28;20051;-76
2021/03/29 04:23:17;;;;;;;10.77;2.10;;;;;;;-141.50;100.00;63355.56;4987522;28;20046;-75
2021/03/29 04:25:45;;;;;;;10.65;2.30;;;;;;;-141.50;100.00;63355.56;4989562;28;20046;-76
2021/03/29 04:28:11;;;;;;;11.95;2.17;;;;;;;-141.50;100.00;63355.56;4997196;28;20046;-77
2021/03/29 04:30:40;;;;;;;11.38;2.28;;;;;;;-141.50;100.00;63355.56;4992786;28;20080;-76
2021/03/29 04:33:11;;;;;;;10.95;2.00;;;;;;;-141.50;100.00;63355.56;4992849;28;20133;-76
2021/03/29 04:35:37;;;;;;;13.10;2.05;;;;;;;-141.50;100.00;63355.56;4992498;28;20514;-75
2021/03/29 04:38:03;;;;;;;14.35;2.05;;;;;;;-141.50;100.00;63355.56;4991845;28;20042;-76
2021/03/29 04:40:29;;;;;;;11.07;1.95;;;;;;;-141.50;100.00;63355.56;4991524;28;20101;-76
2021/03/29 04:42:56;;;;;;;8.25;1.90;;;;;;;-141.50;100.00;63355.56;4991504;28;20054;-76
2021/03/29 04:45:25;;;;;;;12.32;2.30;;;;;;;-141.50;100.00;63355.56;4990633;28;20039;-76
2021/03/29 04:47:53;;;;;;;9.48;2.20;;;;;;;-141.50;100.00;63355.56;4982423;28;20117;-76
2021/03/29 04:50:23;;;;;;;9.93;2.25;;;;;;;-141.50;100.00;63355.56;4985571;28;20050;-77
2021/03/29 04:52:54;;;;;;;7.05;1.80;;;;;;;-141.50;100.00;63355.56;4989916;28;20116;-77
2021/03/29 04:55:23;;;;;;;12.43;1.95;;;;;;;-141.50;100.00;63355.56;4970384;28;20106;-76
2021/03/29 04:57:49;;;;;;;11.52;2.10;;;;;;;-141.50;100.00;63355.56;4969488;28;20057;-77
2021/03/29 05:00:16;;;;;;;9.23;1.85;;;;;;;-141.50;100.00;63355.56;4984880;28;20042;-75
2021/03/29 05:02:44;;;;;;;11.70;2.13;;;;;;;-141.50;100.00;63355.56;4987738;28;20425;-76
2021/03/29 05:05:11;;;;;;;9.45;2.05;;;;;;;-141.50;100.00;63355.56;4991270;28;20056;-75
2021/03/29 05:07:39;;;;;;;9.07;2.03;;;;;;;-141.50;100.00;63355.56;4995402;28;20421;-76
2021/03/29 05:10:11;;;;;;;10.50;2.00;;;;;;;-141.50;100.00;63355.56;4996971;28;20054;-73
2021/03/29 05:12:37;;;;;;;12.95;2.17;;;;;;;-141.50;100.00;63355.56;4993697;28;20054;-76
2021/03/29 05:15:05;;;;;;;12.43;2.40;;;;;;;-141.50;100.00;63355.56;4996035;28;20121;-75
2021/03/29 05:17:32;;;;;;;11.93;2.13;;;;;;;-141.50;100.00;63355.56;4982578;28;20057;-77
2021/03/29 05:19:58;;;;;;;11.35;2.08;;;;;;;-141.50;100.00;63355.56;4978540;28;20046;-77
2021/03/29 05:22:24;;;;;;;11.27;2.33;;;;;;;-141.50;100.00;63355.56;4978538;28;20042;-77
2021/03/29 05:24:54;;;;;;;12.93;2.60;;;;;;;-141.50;100.00;63355.56;4975463;28;20046;-74
2021/03/29 05:27:23;;;;;;;10.93;2.20;;;;;;;-141.50;100.00;63355.56;4976317;28;20628;-76
2021/03/29 05:29:49;;;;;;;9.32;1.92;;;;;;;-141.50;100.00;63355.56;4990454;28;20030;-74
2021/03/29 05:32:18;;;;;;;14.40;1.98;;;;;;;-141.50;100.00;63355.56;4981670;28;20600;-76
2021/03/29 05:34:46;;;;;;;7.55;1.73;;;;;;;-141.50;100.00;63355.56;4978370;28;20113;-74
2021/03/29 05:37:14;;;;;;;14.85;2.20;;;;;;;-141.50;100.00;63355.56;4975771;28;20074;-77
2021/03/29 05:39:40;;;;;;;11.13;2.30;;;;;;;-141.50;100.00;63355.56;4978976;28;20043;-75
2021/03/29 05:42:08;;;;;;;8.93;1.77;;;;;;;-141.50;100.00;63355.56;4983338;28;20410;-77
2021/03/29 05:44:35;;;;;;;12.00;2.25;;;;;;;-141.50;100.00;63355.56;4979515;28;20049;-76
2021/03/29 05:47:02;;;;;;;16.92;2.28;;;;;;;-141.50;100.00;63355.56;4990728;28;20038;-75
2021/03/29 05:49:31;;;;;;;13.38;2.63;;;;;;;-141.50;100.00;63355.56;4991332;28;20466;-76
2021/03/29 05:51:58;;;;;;;11.38;3.25;;;;;;;-141.50;100.00;63355.56;4990441;28;20426;-75
2021/03/29 05:54:24;;;;;;;11.27;2.17;;;;;;;-141.50;100.00;63355.56;4991738;28;20047;-76
2021/03/29 05:56:52;;;;;;;15.95;2.38;;;;;;;-141.50;100.00;63355.56;4993012;28;20509;-74
2021/03/29 05:59:21;;;;;;;14.43;2.40;;;;;;;-141.50;100.00;63355.56;4994919;28;20049;-75
2021/03/29 06:01:52;;;;;;;15.18;2.28;;;;;;;-141.50;100.00;63355.56;4994267;28;20046;-74
2021/03/29 06:04:42;;;;;;;12.68;2.42;;;;;;;-141.50;100.00;63355.56;5008610;28;20501;-76
2021/03/29 06:07:17;;;;;;;19.23;2.28;;;;;;;-141.50;100.00;63355.56;5008788;28;20052;-75
2021/03/29 06:09:44;;;;;;;9.70;2.10;;;;;;;-141.50;100.00;63355.56;4985336;28;20050;-75
2021/03/29 06:12:12;;;;;;;10.20;1.80;;;;;;;-141.50;100.00;63355.56;4990345;28;20042;-75
2021/03/29 06:14:39;;;;;;;13.05;2.25;;;;;;;-141.50;100.00;63355.56;4988745;28;20058;-74
2021/03/29 06:17:06;;;;;;;11.30;2.30;;;;;;;-141.50;100.00;63355.56;4981145;28;20047;-76
2021/03/29 06:19:46;;;;;;;13.50;2.10;;;;;;;-141.50;100.00;63355.56;4996389;28;20035;-74
2021/03/29 06:22:24;;;;;;;12.65;2.15;;;;;;;-141.50;100.00;63355.56;4968598;28;20502;-73
2021/03/29 06:25:18;;;;;;;12.63;2.40;;;;;;;-141.50;100.00;63355.56;4981471;28;20422;-73
2021/03/29 06:27:54;;;;;;;11.75;2.28;;;;;;;-141.50;100.00;63355.56;4983433;28;20041;-73
2021/03/29 06:30:35;;;;;;;16.70;2.70;;;;;;;-141.50;100.00;63355.56;4970053;28;20049;-73
2021/03/29 06:33:14;;;;;;;14.55;2.45;;;;;;;-141.50;100.00;63355.56;4993581;28;20084;-73
2021/03/29 06:35:40;;;;;;;8.20;2.10;;;;;;;-141.50;100.00;63355.56;4992757;28;20050;-74
2021/03/29 06:38:15;;;;;;;15.77;2.63;;;;;;;-141.50;100.00;63355.56;4991653;28;20038;-77
2021/03/29 06:41:03;;;;;;;10.75;2.40;;;;;;;-141.50;100.00;63355.56;4992167;28;20053;-76
2021/03/29 06:43:39;;;;;;;16.85;3.08;;;;;;;-141.50;100.00;63355.56;4989686;28;20046;-74
2021/03/29 06:46:27;;;;;;;12.50;2.30;;;;;;;-141.50;100.00;63355.56;4988951;28;20382;-75
2021/03/29 06:48:55;;;;;;;19.10;2.83;;;;;;;-141.50;100.00;63355.56;4989769;28;20058;-75
2021/03/29 06:51:32;;;;;;;11.73;2.50;;;;;;;-141.50;100.00;63355.56;4990404;28;20065;-76
2021/03/29 06:54:05;;;;;;;9.63;2.25;;;;;;;-141.50;100.00;63355.56;4976007;28;20053;-75
2021/03/29 06:56:36;;;;;;;14.10;2.75;;;;;;;-141.50;100.00;63355.56;4969599;28;20074;-74
2021/03/29 06:59:02;;;;;;;12.90;2.70;;;;;;;-141.50;100.00;63355.56;4969226;28;20061;-74
2021/03/29 07:01:29;;;;;;;14.30;2.55;;;;;;;-141.50;100.00;63355.56;4969619;28;20046;-74
2021/03/29 07:03:56;;;;;;;11.40;2.65;;;;;;;-141.50;100.00;63355.56;4976040;28;20049;-74
2021/03/29 07:06:25;;;;;;;11.98;2.67;;;;;;;-141.50;100.00;63355.56;4979341;28;20030;-75
2021/03/29 07:08:52;;;;;;;13.15;2.50;;;;;;;-141.50;100.00;63355.56;4976982;28;20047;-75
2021/03/29 07:11:20;;;;;;;13.25;2.55;;;;;;;-141.50;100.00;63355.56;4978545;28;20335;-76
2021/03/29 07:13:47;;;;;;;14.45;2.90;;;;;;;-141.50;100.00;63355.56;4981512;28;20474;-75
2021/03/29 07:16:14;;;;;;;14.20;2.90;;;;;;;-141.50;100.00;63355.56;4993984;28;20042;-75
2021/03/29 07:18:41;;;;;;;14.15;2.90;;;;;;;-141.50;100.00;63355.56;4980995;28;20119;-75
2021/03/29 07:21:10;;;;;;;8.85;2.50;;;;;;;-141.50;100.00;63355.56;4977559;28;20077;-76
2021/03/29 07:23:38;;;;;;;10.90;2.78;;;;;;;-141.50;100.00;63355.56;4978809;28;20097;-75
2021/03/29 07:26:25;;;;;;;13.43;2.80;;;;;;;-141.50;100.00;63355.56;4979278;28;20046;-75
2021/03/29 07:28:54;;;;;;;9.80;2.72;;;;;;;-141.50;100.00;63355.56;4980520;28;20042;-74
2021/03/29 07:31:38;;;;;;;9.98;2.40;;;;;;;-141.50;100.00;63355.56;4978155;28;20130;-74
2021/03/29 07:34:05;;;;;;;18.95;2.67;;;;;;;-141.50;100.00;63355.56;4973496;28;20137;-77
2021/03/29 07:36:50;;;;;;;13.73;3.10;;;;;;;-141.50;100.00;63355.56;4974610;28;20047;-77
2021/03/29 07:39:36;;;;;;;14.95;2.53;;;;;;;-141.50;100.00;63355.56;4971009;28;20046;-75
2021/03/29 07:42:24;;;;;;;17.45;2.90;;;;;;;-141.50;100.00;63355.56;4971480;28;20042;-77
2021/03/29 07:44:56;;;;;;;12.10;2.85;;;;;;;-141.50;100.00;63355.56;4974867;28;20043;-77
2021/03/29 07:47:41;;;;;;;9.52;2.60;;;;;;;-141.50;100.00;63355.56;4968935;28;20042;-75
2021/03/29 07:50:10;;;;;;;13.35;2.70;;;;;;;-141.50;100.00;63355.56;4978219;28;20043;-76
2021/03/29 07:52:40;;;;;;;10.00;2.90;;;;;;;-141.50;100.00;63355.56;4988648;28;20050;-75
2021/03/29 07:55:24;;;;;;;16.98;3.20;;;;;;;-141.50;100.00;63355.56;4988755;28;20189;-76
2021/03/29 07:57:50;;;;;;;13.75;2.95;;;;;;;-141.50;100.00;63355.56;4988216;28;20141;-78
2021/03/29 08:00:22;;;;;;;10.95;3.30;;;;;;;-141.50;100.00;63355.56;4988288;28;20038;-77
2021/03/29 08:02:49;;;;;;;16.88;3.22;;;;;;;-141.50;100.00;63355.56;4979021;28;20051;-75
2021/03/29 08:05:45;;;;;;;13.73;2.92;;;;;;;-141.50;100.00;63355.56;4968290;28;20046;-76
2021/03/29 08:08:26;;;;;;;11.77;2.97;;;;;;;-141.50;100.00;63355.56;4975837;28;20046;-79
2021/03/29 08:11:13;;;;;;;15.80;3.67;;;;;;;-141.50;100.00;63355.56;4973830;28;20050;-76
2021/03/29 08:13:48;;;;;;;14.20;3.10;;;;;;;-141.50;100.00;63355.56;4990615;28;20052;-75
2021/03/29 08:16:15;;;;;;;13.23;3.03;;;;;;;-141.50;100.00;63355.56;5029566;23;20053;-81
2021/03/29 08:19:25;;;;;;;13.23;3.30;;;;;;;-141.50;100.00;63355.56;5031839;28;20042;-78
2021/03/29 08:21:57;;;;;;;14.05;3.80;;;;;;;-141.50;100.00;63355.56;4995210;28;20050;-79
2021/03/29 08:24:45;;;;;;;13.20;3.25;;;;;;;-141.50;100.00;63355.56;5030872;28;20048;-80
2021/03/29 08:27:19;;;;;;;12.65;3.38;;;;;;;-141.50;100.00;63355.56;5011126;28;20050;-79
2021/03/29 08:29:49;;;;;;;14.48;3.80;;;;;;;-141.50;100.00;63355.56;5011863;28;20617;-79
2021/03/29 08:32:31;;;;;;;13.82;3.92;;;;;;;-141.50;100.00;63355.56;5012200;28;20056;-77
2021/03/29 08:35:13;;;;;;;17.70;3.63;;;;;;;-141.50;100.00;63355.56;5012219;28;20502;-78
2021/03/29 08:37:51;;;;;;;22.13;3.88;;;;;;;-141.50;100.00;63355.56;5030142;28;20049;-78
2021/03/29 08:40:27;;;;;;;20.20;3.80;;;;;;;-141.50;100.00;63355.56;5030120;28;20493;-77
2021/03/29 08:42:57;;;;;;;16.00;3.80;;;;;;;-141.50;100.00;63355.56;5014963;28;20154;-79
2021/03/29 08:45:25;;;;;;;14.27;3.90;;;;;;;-141.50;100.00;63355.56;5040841;28;20045;-78
2021/03/29 08:47:57;;;;;;;16.38;3.78;;;;;;;-141.50;100.00;63355.56;5020417;28;20046;-78
2021/03/29 08:50:34;;;;;;;19.48;3.90;;;;;;;-141.50;100.00;63355.56;5032978;28;20052;-78
2021/03/29 08:53:10;;;;;;;17.00;3.90;;;;;;;-141.50;100.00;63355.56;5032130;28;20049;-78
2021/03/29 08:55:39;;;;;;;17.60;4.20;;;;;;;-141.50;100.00;63355.56;5032708;28;20488;-77
2021/03/29 08:58:06;;;;;;;16.90;3.58;;;;;;;-141.50;100.00;63355.56;5031344;28;20042;-78
2021/03/29 09:00:38;;;;;;;14.95;3.70;;;;;;;-141.50;100.00;63355.56;5030993;28;20038;-78
2021/03/29 09:03:05;;;;;;;17.63;3.75;;;;;;;-141.50;100.00;63355.56;5031476;28;20049;-78
2021/03/29 09:05:31;;;;;;;15.48;3.53;;;;;;;-141.50;100.00;63355.56;5034794;28;20554;-77
2021/03/29 09:08:10;;;;;;;14.38;3.85;;;;;;;-141.50;100.00;63355.56;5036505;28;20030;-78
2021/03/29 09:10:38;;;;;;;17.55;3.70;;;;;;;-141.50;100.00;63355.56;5034789;28;20077;-78
2021/03/29 09:13:11;;;;;;;14.75;3.40;;;;;;;-141.50;100.00;63355.56;5036823;28;20041;-77
2021/03/29 09:15:49;;;;;;;16.63;4.20;;;;;;;-141.50;100.00;63355.56;5019493;28;20630;-77
2021/03/29 09:18:18;;;;;;;12.07;3.72;;;;;;;-141.50;100.00;63355.56;5034762;28;20038;-77
2021/03/29 09:20:48;;;;;;;11.98;3.40;;;;;;;-141.50;100.00;63355.56;5033042;28;20049;-77
2021/03/29 09:23:19;;;;;;;23.33;4.15;;;;;;;-141.50;100.00;63355.56;5034677;28;20321;-77
2021/03/29 09:25:48;;;;;;;18.02;3.90;;;;;;;-141.50;100.00;63355.56;5042505;28;20045;-78
2021/03/29 09:31:19;;;;;;;12.50;4.03;;;;;;;-141.50;100.00;63355.56;5022903;28;20100;-78
2021/03/29 09:33:49;;;;;;;13.73;4.00;;;;;;;-141.50;100.00;63355.56;5016056;28;20038;-76
2021/03/29 09:36:18;;;;;;;13.35;3.47;;;;;;;-141.50;100.00;63355.56;5017371;28;20065;-78
2021/03/29 09:39:02;;;;;;;16.65;3.88;;;;;;;-141.50;100.00;63355.56;5017870;28;20049;-78
2021/03/29 09:41:32;;;;;;;16.05;3.90;;;;;;;-141.50;100.00;63355.56;5015980;28;20046;-78
2021/03/29 09:44:10;;;;;;;18.98;3.45;;;;;;;-141.50;100.00;63355.56;4998986;28;20061;-74
2021/03/29 09:46:36;;;;;;;10.25;2.95;;;;;;;-141.50;100.00;63355.56;5030460;28;20623;-75
2021/03/29 09:49:11;;;;;;;13.00;3.13;;;;;;;-141.50;100.00;63355.56;5034731;28;20095;-74
2021/03/29 09:51:39;;;;;;;13.63;3.13;;;;;;;-141.50;100.00;63355.56;5032663;28;20049;-76
2021/03/29 09:54:27;;;;;;;15.90;2.95;;;;;;;-141.50;100.00;63355.56;5031997;28;20521;-76
2021/03/29 09:56:55;;;;;;;14.75;3.30;;;;;;;-141.50;100.00;63355.56;5032904;28;20073;-74
2021/03/29 09:59:34;;;;;;;9.82;2.80;;;;;;;-141.50;100.00;63355.56;5035809;28;20053;-77
2021/03/29 10:02:22;;;;;;;14.25;3.45;;;;;;;-141.50;100.00;63355.56;5030408;28;20080;-74
2021/03/29 10:04:59;;;;;;;13.80;2.80;;;;;;;-141.50;100.00;63355.56;5055318;28;20049;-76
2021/03/29 10:07:32;;;;;;;11.52;3.13;;;;;;;-141.50;100.00;63355.56;5055214;28;20033;-76
2021/03/29 10:10:07;;;;;;;8.35;2.55;;;;;;;-141.50;100.00;63355.56;5061185;28;20045;-78
2021/03/29 10:12:41;;;;;;;15.50;3.17;;;;;;;-141.50;100.00;63355.56;5056514;28;20051;-79
2021/03/29 10:15:14;;;;;;;10.88;3.50;;;;;;;-141.50;100.00;63355.56;5054218;28;20053;-78
2021/03/29 10:17:46;;;;;;;12.85;3.42;;;;;;;-141.50;100.00;63355.56;5008670;28;20046;-77
2021/03/29 10:20:15;;;;;;;14.60;3.13;;;;;;;-141.50;100.00;63355.56;5000451;28;20177;-77
2021/03/29 10:22:42;;;;;;;15.32;3.70;;;;;;;-141.50;100.00;63355.56;5000886;28;20088;-79
2021/03/29 10:25:18;;;;;;;14.02;3.22;;;;;;;-141.50;100.00;63355.56;5015792;28;20152;-78
2021/03/29 10:27:51;;;;;;;12.60;3.30;;;;;;;-141.50;100.00;63355.56;5003691;28;20137;-80
2021/03/29 10:30:18;;;;;;;13.20;3.28;;;;;;;-141.50;100.00;63355.56;5026993;28;20055;-78
2021/03/29 10:32:57;;;;;;;13.82;3.70;;;;;;;-141.50;100.00;63355.56;5018789;28;20136;-78
2021/03/29 10:35:28;;;;;;;12.70;3.30;;;;;;;-141.50;100.00;63355.56;5021933;28;20049;-78
2021/03/29 10:38:03;;;;;;;10.95;3.17;;;;;;;-141.50;100.00;63355.56;5015430;28;20146;-78
2021/03/29 10:40:29;;;;;;;18.95;4.15;;;;;;;-141.50;100.00;63355.56;5010146;28;20072;-79
2021/03/29 10:43:02;;;;;;;14.23;3.72;;;;;;;-141.50;100.00;63355.56;5034108;28;20152;-79
2021/03/29 10:45:28;;;;;;;12.43;3.50;;;;;;;-141.50;100.00;63355.56;5024857;28;20050;-81
2021/03/29 10:47:55;;;;;;;17.63;4.13;;;;;;;-141.50;100.00;63355.56;5007540;28;20102;-79
2021/03/29 10:50:32;;;;;;;12.00;3.33;;;;;;;-141.50;100.00;63355.56;5014613;28;20059;-79
2021/03/29 10:52:59;;;;;;;11.40;2.90;;;;;;;-141.50;100.00;63355.56;5020591;28;20049;-78
2021/03/29 10:55:28;;;;;;;11.07;3.33;;;;;;;-141.50;100.00;63355.56;5037091;28;20053;-78
2021/03/29 10:57:54;;;;;;;12.00;3.70;;;;;;;-141.50;100.00;63355.56;5022061;28;20099;-78
2021/03/29 11:00:22;;;;;;;15.57;4.22;;;;;;;-141.50;100.00;63355.56;5043922;28;20041;-79
2021/03/29 11:02:53;;;;;;;14.48;3.55;;;;;;;-141.50;100.00;63355.56;5038891;28;20080;-79
2021/03/29 11:05:22;;;;;;;14.63;3.80;;;;;;;-141.50;100.00;63355.56;5041995;28;20427;-79
2021/03/29 11:07:48;;;;;;;12.10;3.63;;;;;;;-141.50;100.00;63355.56;5043872;28;20061;-79
2021/03/29 11:10:17;;;;;;;16.23;4.00;;;;;;;-141.50;100.00;63355.56;5031931;28;20108;-78
2021/03/29 11:12:44;;;;;;;11.77;3.08;;;;;;;-141.50;100.00;63355.56;5013900;28;20069;-77
2021/03/29 11:15:11;;;;;;;12.98;3.42;;;;;;;-141.50;100.00;63355.56;4999261;28;20053;-78
2021/03/29 11:17:38;;;;;;;10.48;3.83;;;;;;;-141.50;100.00;63355.56;5032273;28;20046;-79
2021/03/29 11:20:07;;;;;;;14.38;3.90;;;;;;;-141.50;100.00;63355.56;5014408;28;20501;-77
2021/03/29 11:22:36;;;;;;;13.00;3.63;;;;;;;-141.50;100.00;63355.56;4997085;28;20660;-80
2021/03/29 11:25:05;;;;;;;13.13;3.40;;;;;;;-141.50;100.00;63355.56;5020184;28;20042;-80
2021/03/29 11:27:36;;;;;;;11.70;3.25;;;;;;;-141.50;100.00;63355.56;5002187;28;20346;-78